sensor_id;sensor_type;location;lat;lon;timestamp;temperature;humidity
54960;DHT22;40860;51.710;8.736;2023-08-31T00:03:37;13.20;99.90
54960;DHT22;40860;51.710;8.736;2023-08-31T00:07:40;13.20;99.90
54960;DHT22;40860;51.710;8.736;2023-08-31T00:11:43;13.20;99.90
54960;DHT22;40860;51.710;8.736;2023-08-31T00:15:47;13.20;99.90
54960;DHT22;40860;51.710;8.736;2023-08-31T00:19:50;13.20;99.90
54960;DHT22;40860;51.710;8.736;2023-08-31T00:23:53;13.10;99.90
54960;DHT22;40860;51.710;8.736;2023-08-31T00:27:56;13.10;99.90
54960;DHT22;40860;51.710;8.736;2023-08-31T00:32:07;13.00;99.90
54960;DHT22;40860;51.710;8.736;2023-08-31T00:36:10;13.00;99.90
54960;DHT22;40860;51.710;8.736;2023-08-31T00:40:13;13.00;99.90
54960;DHT22;40860;51.710;8.736;2023-08-31T00:44:16;12.90;99.90
54960;DHT22;40860;51.710;8.736;2023-08-31T00:48:24;12.90;99.90
54960;DHT22;40860;51.710;8.736;2023-08-31T00:52:28;12.90;99.90
54960;DHT22;40860;51.710;8.736;2023-08-31T00:56:31;12.90;99.90
54960;DHT22;40860;51.710;8.736;2023-08-31T01:00:44;12.80;99.90
54960;DHT22;40860;51.710;8.736;2023-08-31T01:05:00;12.80;99.90
54960;DHT22;40860;51.710;8.736;2023-08-31T01:09:09;12.70;99.90
54960;DHT22;40860;51.710;8.736;2023-08-31T01:13:21;12.70;99.90
54960;DHT22;40860;51.710;8.736;2023-08-31T01:17:28;12.60;99.90
54960;DHT22;40860;51.710;8.736;2023-08-31T01:21:38;12.60;99.90
54960;DHT22;40860;51.710;8.736;2023-08-31T01:25:44;12.50;99.90
54960;DHT22;40860;51.710;8.736;2023-08-31T01:29:47;12.40;99.90
54960;DHT22;40860;51.710;8.736;2023-08-31T01:33:50;12.40;99.90
54960;DHT22;40860;51.710;8.736;2023-08-31T01:37:58;12.30;99.90
54960;DHT22;40860;51.710;8.736;2023-08-31T01:42:05;12.30;99.90
54960;DHT22;40860;51.710;8.736;2023-08-31T01:46:10;12.30;99.90
54960;DHT22;40860;51.710;8.736;2023-08-31T01:50:13;12.30;99.90
54960;DHT22;40860;51.710;8.736;2023-08-31T01:54:16;12.40;99.90
54960;DHT22;40860;51.710;8.736;2023-08-31T01:58:20;12.40;99.90
54960;DHT22;40860;51.710;8.736;2023-08-31T02:02:24;12.40;99.90
54960;DHT22;40860;51.710;8.736;2023-08-31T02:06:27;12.40;99.90
54960;DHT22;40860;51.710;8.736;2023-08-31T02:10:30;12.50;99.90
54960;DHT22;40860;51.710;8.736;2023-08-31T02:14:34;12.50;99.90
54960;DHT22;40860;51.710;8.736;2023-08-31T02:18:37;12.50;99.90
54960;DHT22;40860;51.710;8.736;2023-08-31T02:22:40;12.50;99.90
54960;DHT22;40860;51.710;8.736;2023-08-31T02:26:43;12.50;99.90
54960;DHT22;40860;51.710;8.736;2023-08-31T02:30:57;12.50;99.90
54960;DHT22;40860;51.710;8.736;2023-08-31T02:35:05;12.40;99.90
54960;DHT22;40860;51.710;8.736;2023-08-31T02:39:08;12.50;99.90
54960;DHT22;40860;51.710;8.736;2023-08-31T02:43:11;12.50;99.90
54960;DHT22;40860;51.710;8.736;2023-08-31T02:47:16;12.50;99.90
54960;DHT22;40860;51.710;8.736;2023-08-31T02:51:19;12.60;99.90
54960;DHT22;40860;51.710;8.736;2023-08-31T02:55:22;12.60;99.90
54960;DHT22;40860;51.710;8.736;2023-08-31T02:59:25;12.70;99.90
54960;DHT22;40860;51.710;8.736;2023-08-31T03:03:29;12.70;99.90
54960;DHT22;40860;51.710;8.736;2023-08-31T03:07:32;12.60;99.90
54960;DHT22;40860;51.710;8.736;2023-08-31T03:11:36;12.60;99.90
54960;DHT22;40860;51.710;8.736;2023-08-31T03:15:39;12.60;99.90
54960;DHT22;40860;51.710;8.736;2023-08-31T03:19:44;12.60;99.90
54960;DHT22;40860;51.710;8.736;2023-08-31T03:23:47;12.50;99.90
54960;DHT22;40860;51.710;8.736;2023-08-31T03:27:50;12.50;99.90
54960;DHT22;40860;51.710;8.736;2023-08-31T03:31:53;12.40;99.90
54960;DHT22;40860;51.710;8.736;2023-08-31T03:36:01;12.40;99.90
54960;DHT22;40860;51.710;8.736;2023-08-31T03:40:07;12.40;99.90
54960;DHT22;40860;51.710;8.736;2023-08-31T03:44:11;12.30;99.90
54960;DHT22;40860;51.710;8.736;2023-08-31T03:48:15;12.30;99.90
54960;DHT22;40860;51.710;8.736;2023-08-31T03:52:19;12.30;99.90
54960;DHT22;40860;51.710;8.736;2023-08-31T03:56:22;12.30;99.90
54960;DHT22;40860;51.710;8.736;2023-08-31T04:00:25;12.30;99.90
54960;DHT22;40860;51.710;8.736;2023-08-31T04:04:28;12.30;99.90
54960;DHT22;40860;51.710;8.736;2023-08-31T04:08:33;12.30;99.90
54960;DHT22;40860;51.710;8.736;2023-08-31T04:12:38;12.30;99.90
54960;DHT22;40860;51.710;8.736;2023-08-31T04:16:41;12.30;99.90
54960;DHT22;40860;51.710;8.736;2023-08-31T04:20:48;12.20;99.90
54960;DHT22;40860;51.710;8.736;2023-08-31T04:24:54;12.20;99.90
54960;DHT22;40860;51.710;8.736;2023-08-31T04:28:57;12.10;99.90
54960;DHT22;40860;51.710;8.736;2023-08-31T04:32:59;12.10;99.90
54960;DHT22;40860;51.710;8.736;2023-08-31T04:37:03;12.00;99.90
54960;DHT22;40860;51.710;8.736;2023-08-31T04:41:07;12.10;99.90
54960;DHT22;40860;51.710;8.736;2023-08-31T04:45:10;12.20;99.90
54960;DHT22;40860;51.710;8.736;2023-08-31T04:49:13;12.20;99.90
54960;DHT22;40860;51.710;8.736;2023-08-31T04:53:16;12.30;99.90
54960;DHT22;40860;51.710;8.736;2023-08-31T04:57:21;12.30;99.90
54960;DHT22;40860;51.710;8.736;2023-08-31T05:01:25;12.30;99.90
54960;DHT22;40860;51.710;8.736;2023-08-31T05:05:28;12.30;99.90
54960;DHT22;40860;51.710;8.736;2023-08-31T05:09:32;12.30;99.90
54960;DHT22;40860;51.710;8.736;2023-08-31T05:13:38;12.20;99.90
54960;DHT22;40860;51.710;8.736;2023-08-31T05:17:43;12.30;99.90
54960;DHT22;40860;51.710;8.736;2023-08-31T05:21:46;12.30;99.90
54960;DHT22;40860;51.710;8.736;2023-08-31T05:25:49;12.30;99.90
54960;DHT22;40860;51.710;8.736;2023-08-31T05:29:54;12.20;99.90
54960;DHT22;40860;51.710;8.736;2023-08-31T05:33:57;12.20;99.90
54960;DHT22;40860;51.710;8.736;2023-08-31T05:38:00;12.30;99.90
54960;DHT22;40860;51.710;8.736;2023-08-31T05:42:03;12.20;99.90
54960;DHT22;40860;51.710;8.736;2023-08-31T05:46:08;12.20;99.90
54960;DHT22;40860;51.710;8.736;2023-08-31T05:50:11;12.20;99.90
54960;DHT22;40860;51.710;8.736;2023-08-31T05:54:14;12.20;99.90
54960;DHT22;40860;51.710;8.736;2023-08-31T05:58:17;12.20;99.90
54960;DHT22;40860;51.710;8.736;2023-08-31T06:02:21;12.30;99.90
54960;DHT22;40860;51.710;8.736;2023-08-31T06:06:24;12.30;99.90
54960;DHT22;40860;51.710;8.736;2023-08-31T06:10:27;12.40;99.90
54960;DHT22;40860;51.710;8.736;2023-08-31T06:14:31;12.60;99.90
54960;DHT22;40860;51.710;8.736;2023-08-31T06:18:35;12.60;99.90
54960;DHT22;40860;51.710;8.736;2023-08-31T06:22:38;12.70;99.90
54960;DHT22;40860;51.710;8.736;2023-08-31T06:26:41;12.80;99.90
54960;DHT22;40860;51.710;8.736;2023-08-31T06:30:44;12.90;99.90
54960;DHT22;40860;51.710;8.736;2023-08-31T06:34:50;13.10;99.90
54960;DHT22;40860;51.710;8.736;2023-08-31T06:38:53;13.20;99.90
54960;DHT22;40860;51.710;8.736;2023-08-31T06:42:55;13.40;99.90
54960;DHT22;40860;51.710;8.736;2023-08-31T06:46:58;13.60;99.90
54960;DHT22;40860;51.710;8.736;2023-08-31T06:51:03;13.60;99.90
54960;DHT22;40860;51.710;8.736;2023-08-31T06:55:06;13.40;99.90
54960;DHT22;40860;51.710;8.736;2023-08-31T06:59:10;13.30;99.90
54960;DHT22;40860;51.710;8.736;2023-08-31T07:03:12;13.30;99.90
54960;DHT22;40860;51.710;8.736;2023-08-31T07:07:17;13.20;99.90
54960;DHT22;40860;51.710;8.736;2023-08-31T07:11:20;13.10;99.90
54960;DHT22;40860;51.710;8.736;2023-08-31T07:15:23;13.20;99.90
54960;DHT22;40860;51.710;8.736;2023-08-31T07:19:26;13.20;99.90
54960;DHT22;40860;51.710;8.736;2023-08-31T07:23:31;13.20;99.90
54960;DHT22;40860;51.710;8.736;2023-08-31T07:27:33;13.30;99.90
54960;DHT22;40860;51.710;8.736;2023-08-31T07:31:36;13.40;99.90
54960;DHT22;40860;51.710;8.736;2023-08-31T07:35:39;13.60;99.90
54960;DHT22;40860;51.710;8.736;2023-08-31T07:39:43;13.80;99.90
54960;DHT22;40860;51.710;8.736;2023-08-31T07:43:47;13.90;99.90
54960;DHT22;40860;51.710;8.736;2023-08-31T07:48:05;14.20;99.90
54960;DHT22;40860;51.710;8.736;2023-08-31T07:52:09;14.50;99.90
54960;DHT22;40860;51.710;8.736;2023-08-31T07:56:16;14.70;99.90
54960;DHT22;40860;51.710;8.736;2023-08-31T08:00:19;15.00;99.90
54960;DHT22;40860;51.710;8.736;2023-08-31T08:04:22;15.30;99.90
54960;DHT22;40860;51.710;8.736;2023-08-31T08:08:26;15.40;99.90
54960;DHT22;40860;51.710;8.736;2023-08-31T08:12:37;15.60;99.90
54960;DHT22;40860;51.710;8.736;2023-08-31T08:16:44;15.80;99.90
54960;DHT22;40860;51.710;8.736;2023-08-31T08:20:47;15.70;99.50
54960;DHT22;40860;51.710;8.736;2023-08-31T08:24:54;15.50;99.50
54960;DHT22;40860;51.710;8.736;2023-08-31T08:29:02;15.20;99.40
54960;DHT22;40860;51.710;8.736;2023-08-31T08:33:05;15.00;99.90
54960;DHT22;40860;51.710;8.736;2023-08-31T08:37:13;14.80;99.90
54960;DHT22;40860;51.710;8.736;2023-08-31T08:41:19;14.60;99.90
54960;DHT22;40860;51.710;8.736;2023-08-31T08:45:32;14.60;99.90
54960;DHT22;40860;51.710;8.736;2023-08-31T08:49:43;14.60;99.90
54960;DHT22;40860;51.710;8.736;2023-08-31T08:53:52;14.80;99.90
54960;DHT22;40860;51.710;8.736;2023-08-31T08:57:59;15.00;99.90
54960;DHT22;40860;51.710;8.736;2023-08-31T09:02:14;15.50;99.90
54960;DHT22;40860;51.710;8.736;2023-08-31T09:06:21;15.90;99.90
54960;DHT22;40860;51.710;8.736;2023-08-31T09:10:37;16.20;99.90
54960;DHT22;40860;51.710;8.736;2023-08-31T09:14:40;16.40;99.90
54960;DHT22;40860;51.710;8.736;2023-08-31T09:18:44;16.20;99.40
54960;DHT22;40860;51.710;8.736;2023-08-31T09:22:47;16.10;99.30
54960;DHT22;40860;51.710;8.736;2023-08-31T09:26:55;15.90;99.20
54960;DHT22;40860;51.710;8.736;2023-08-31T09:31:05;15.80;99.80
54960;DHT22;40860;51.710;8.736;2023-08-31T09:35:11;15.70;99.50
54960;DHT22;40860;51.710;8.736;2023-08-31T09:39:21;15.40;99.40
54960;DHT22;40860;51.710;8.736;2023-08-31T09:43:24;14.90;99.90
54960;DHT22;40860;51.710;8.736;2023-08-31T09:47:27;14.70;99.90
54960;DHT22;40860;51.710;8.736;2023-08-31T09:51:32;14.60;99.90
54960;DHT22;40860;51.710;8.736;2023-08-31T09:55:39;14.80;99.90
54960;DHT22;40860;51.710;8.736;2023-08-31T09:59:42;15.00;99.90
54960;DHT22;40860;51.710;8.736;2023-08-31T10:03:45;15.20;99.90
54960;DHT22;40860;51.710;8.736;2023-08-31T10:07:50;15.30;99.90
54960;DHT22;40860;51.710;8.736;2023-08-31T10:11:54;15.40;99.90
54960;DHT22;40860;51.710;8.736;2023-08-31T10:15:57;15.90;99.90
54960;DHT22;40860;51.710;8.736;2023-08-31T10:20:00;16.00;99.90
54960;DHT22;40860;51.710;8.736;2023-08-31T10:24:05;16.10;99.90
54960;DHT22;40860;51.710;8.736;2023-08-31T10:28:16;16.50;99.90
54960;DHT22;40860;51.710;8.736;2023-08-31T10:32:19;16.70;99.90
54960;DHT22;40860;51.710;8.736;2023-08-31T10:36:36;17.00;99.90
54960;DHT22;40860;51.710;8.736;2023-08-31T10:40:41;17.30;99.10
54960;DHT22;40860;51.710;8.736;2023-08-31T10:44:44;17.60;97.80
54960;DHT22;40860;51.710;8.736;2023-08-31T10:48:51;17.70;96.70
54960;DHT22;40860;51.710;8.736;2023-08-31T10:52:54;17.40;96.30
54960;DHT22;40860;51.710;8.736;2023-08-31T10:57:05;17.30;95.90
54960;DHT22;40860;51.710;8.736;2023-08-31T11:01:09;17.20;96.60
54960;DHT22;40860;51.710;8.736;2023-08-31T11:05:12;17.00;95.80
54960;DHT22;40860;51.710;8.736;2023-08-31T11:09:20;16.80;95.00
54960;DHT22;40860;51.710;8.736;2023-08-31T11:13:25;16.90;95.30
54960;DHT22;40860;51.710;8.736;2023-08-31T11:17:28;17.20;95.00
54960;DHT22;40860;51.710;8.736;2023-08-31T11:21:31;17.70;94.90
54960;DHT22;40860;51.710;8.736;2023-08-31T11:25:35;17.50;93.80
54960;DHT22;40860;51.710;8.736;2023-08-31T11:29:43;17.40;94.30
54960;DHT22;40860;51.710;8.736;2023-08-31T11:33:47;17.10;93.20
54960;DHT22;40860;51.710;8.736;2023-08-31T11:37:51;16.90;93.70
54960;DHT22;40860;51.710;8.736;2023-08-31T11:41:54;16.50;94.60
54960;DHT22;40860;51.710;8.736;2023-08-31T11:45:59;16.20;96.60
54960;DHT22;40860;51.710;8.736;2023-08-31T11:50:03;15.90;98.00
54960;DHT22;40860;51.710;8.736;2023-08-31T11:54:07;15.70;98.30
54960;DHT22;40860;51.710;8.736;2023-08-31T11:58:10;15.70;98.70
54960;DHT22;40860;51.710;8.736;2023-08-31T12:02:14;16.10;98.80
54960;DHT22;40860;51.710;8.736;2023-08-31T12:06:17;16.50;98.60
54960;DHT22;40860;51.710;8.736;2023-08-31T12:10:22;16.90;98.80
54960;DHT22;40860;51.710;8.736;2023-08-31T12:14:26;16.90;97.80
54960;DHT22;40860;51.710;8.736;2023-08-31T12:18:31;16.90;97.40
54960;DHT22;40860;51.710;8.736;2023-08-31T12:22:34;17.00;96.90
54960;DHT22;40860;51.710;8.736;2023-08-31T12:26:37;16.80;97.00
54960;DHT22;40860;51.710;8.736;2023-08-31T12:30:41;16.90;97.30
54960;DHT22;40860;51.710;8.736;2023-08-31T12:34:46;17.10;96.40
54960;DHT22;40860;51.710;8.736;2023-08-31T12:38:49;17.10;95.60
54960;DHT22;40860;51.710;8.736;2023-08-31T12:42:52;17.40;95.00
54960;DHT22;40860;51.710;8.736;2023-08-31T12:46:55;17.40;94.60
54960;DHT22;40860;51.710;8.736;2023-08-31T12:50:59;17.50;94.10
54960;DHT22;40860;51.710;8.736;2023-08-31T12:55:02;17.60;94.20
54960;DHT22;40860;51.710;8.736;2023-08-31T12:59:06;18.00;93.80
54960;DHT22;40860;51.710;8.736;2023-08-31T13:03:09;18.00;92.20
54960;DHT22;40860;51.710;8.736;2023-08-31T13:07:14;18.00;93.10
54960;DHT22;40860;51.710;8.736;2023-08-31T13:11:16;18.00;92.40
54960;DHT22;40860;51.710;8.736;2023-08-31T13:15:24;18.10;91.40
54960;DHT22;40860;51.710;8.736;2023-08-31T13:19:27;18.30;91.90
54960;DHT22;40860;51.710;8.736;2023-08-31T13:23:32;18.50;91.40
54960;DHT22;40860;51.710;8.736;2023-08-31T13:27:35;18.80;90.80
54960;DHT22;40860;51.710;8.736;2023-08-31T13:31:37;18.90;90.10
54960;DHT22;40860;51.710;8.736;2023-08-31T13:35:41;18.90;89.00
54960;DHT22;40860;51.710;8.736;2023-08-31T13:39:45;19.10;89.00
54960;DHT22;40860;51.710;8.736;2023-08-31T13:43:48;19.10;87.20
54960;DHT22;40860;51.710;8.736;2023-08-31T13:47:51;19.20;88.30
54960;DHT22;40860;51.710;8.736;2023-08-31T13:51:54;19.30;88.00
54960;DHT22;40860;51.710;8.736;2023-08-31T13:55:58;19.50;87.00
54960;DHT22;40860;51.710;8.736;2023-08-31T14:00:01;19.60;86.70
54960;DHT22;40860;51.710;8.736;2023-08-31T14:04:10;19.50;86.00
54960;DHT22;40860;51.710;8.736;2023-08-31T14:08:12;19.60;86.50
54960;DHT22;40860;51.710;8.736;2023-08-31T14:12:17;19.70;85.70
54960;DHT22;40860;51.710;8.736;2023-08-31T14:16:23;19.90;85.40
54960;DHT22;40860;51.710;8.736;2023-08-31T14:20:26;19.80;85.50
54960;DHT22;40860;51.710;8.736;2023-08-31T14:24:29;19.70;85.50
54960;DHT22;40860;51.710;8.736;2023-08-31T14:28:34;19.40;84.50
54960;DHT22;40860;51.710;8.736;2023-08-31T14:32:37;19.10;85.10
54960;DHT22;40860;51.710;8.736;2023-08-31T14:36:40;18.90;86.50
54960;DHT22;40860;51.710;8.736;2023-08-31T14:40:43;18.10;87.50
54960;DHT22;40860;51.710;8.736;2023-08-31T14:44:47;16.80;90.90
54960;DHT22;40860;51.710;8.736;2023-08-31T14:48:50;16.10;93.20
54960;DHT22;40860;51.710;8.736;2023-08-31T14:52:56;15.50;98.10
54960;DHT22;40860;51.710;8.736;2023-08-31T14:56:59;14.80;99.40
54960;DHT22;40860;51.710;8.736;2023-08-31T15:01:03;14.80;99.90
54960;DHT22;40860;51.710;8.736;2023-08-31T15:05:06;14.70;99.90
54960;DHT22;40860;51.710;8.736;2023-08-31T15:09:09;14.60;99.90
54960;DHT22;40860;51.710;8.736;2023-08-31T15:13:12;14.60;99.90
54960;DHT22;40860;51.710;8.736;2023-08-31T15:17:16;14.70;99.90
54960;DHT22;40860;51.710;8.736;2023-08-31T15:21:19;14.80;99.90
54960;DHT22;40860;51.710;8.736;2023-08-31T15:25:22;14.90;99.90
54960;DHT22;40860;51.710;8.736;2023-08-31T15:29:25;14.90;99.90
54960;DHT22;40860;51.710;8.736;2023-08-31T15:33:30;15.00;99.90
54960;DHT22;40860;51.710;8.736;2023-08-31T15:37:34;15.00;99.90
54960;DHT22;40860;51.710;8.736;2023-08-31T15:41:37;14.90;99.90
54960;DHT22;40860;51.710;8.736;2023-08-31T15:45:44;14.90;99.90
54960;DHT22;40860;51.710;8.736;2023-08-31T15:49:49;15.00;99.90
54960;DHT22;40860;51.710;8.736;2023-08-31T15:53:52;14.90;99.90
54960;DHT22;40860;51.710;8.736;2023-08-31T15:57:55;15.00;99.90
54960;DHT22;40860;51.710;8.736;2023-08-31T16:01:58;15.10;99.90
54960;DHT22;40860;51.710;8.736;2023-08-31T16:06:05;15.00;99.90
54960;DHT22;40860;51.710;8.736;2023-08-31T16:10:10;14.80;99.90
54960;DHT22;40860;51.710;8.736;2023-08-31T16:14:13;14.80;99.90
54960;DHT22;40860;51.710;8.736;2023-08-31T16:18:17;14.80;99.90
54960;DHT22;40860;51.710;8.736;2023-08-31T16:22:21;14.70;99.90
54960;DHT22;40860;51.710;8.736;2023-08-31T16:26:24;14.90;99.90
54960;DHT22;40860;51.710;8.736;2023-08-31T16:30:27;14.80;99.90
54960;DHT22;40860;51.710;8.736;2023-08-31T16:34:30;14.80;99.90
54960;DHT22;40860;51.710;8.736;2023-08-31T16:38:34;14.80;99.90
54960;DHT22;40860;51.710;8.736;2023-08-31T16:42:37;14.70;99.90
54960;DHT22;40860;51.710;8.736;2023-08-31T16:46:41;14.70;99.90
54960;DHT22;40860;51.710;8.736;2023-08-31T16:50:43;14.70;99.90
54960;DHT22;40860;51.710;8.736;2023-08-31T16:54:48;14.60;99.90
54960;DHT22;40860;51.710;8.736;2023-08-31T16:58:50;14.60;99.90
54960;DHT22;40860;51.710;8.736;2023-08-31T17:02:54;14.60;99.90
54960;DHT22;40860;51.710;8.736;2023-08-31T17:06:57;14.60;99.90
54960;DHT22;40860;51.710;8.736;2023-08-31T17:11:05;14.60;99.90
54960;DHT22;40860;51.710;8.736;2023-08-31T17:15:08;14.60;99.90
54960;DHT22;40860;51.710;8.736;2023-08-31T17:19:12;14.60;99.90
54960;DHT22;40860;51.710;8.736;2023-08-31T17:23:16;14.60;99.90
54960;DHT22;40860;51.710;8.736;2023-08-31T17:27:20;14.60;99.90
54960;DHT22;40860;51.710;8.736;2023-08-31T17:31:23;14.70;99.90
54960;DHT22;40860;51.710;8.736;2023-08-31T17:35:27;14.60;99.90
54960;DHT22;40860;51.710;8.736;2023-08-31T17:39:30;14.60;99.90
54960;DHT22;40860;51.710;8.736;2023-08-31T17:43:34;14.60;99.90
54960;DHT22;40860;51.710;8.736;2023-08-31T17:47:37;14.60;99.90
54960;DHT22;40860;51.710;8.736;2023-08-31T17:51:40;14.60;99.90
54960;DHT22;40860;51.710;8.736;2023-08-31T17:55:43;14.60;99.90
54960;DHT22;40860;51.710;8.736;2023-08-31T17:59:48;14.60;99.90
54960;DHT22;40860;51.710;8.736;2023-08-31T18:03:51;14.60;99.90
54960;DHT22;40860;51.710;8.736;2023-08-31T18:07:54;14.50;99.90
54960;DHT22;40860;51.710;8.736;2023-08-31T18:11:56;14.50;99.90
54960;DHT22;40860;51.710;8.736;2023-08-31T18:16:01;14.40;99.90
54960;DHT22;40860;51.710;8.736;2023-08-31T18:20:05;14.30;99.90
54960;DHT22;40860;51.710;8.736;2023-08-31T18:24:08;14.30;99.90
54960;DHT22;40860;51.710;8.736;2023-08-31T18:28:11;14.20;99.90
54960;DHT22;40860;51.710;8.736;2023-08-31T18:32:16;14.20;99.90
54960;DHT22;40860;51.710;8.736;2023-08-31T18:36:19;14.20;99.90
54960;DHT22;40860;51.710;8.736;2023-08-31T18:40:22;14.10;99.90
54960;DHT22;40860;51.710;8.736;2023-08-31T18:44:25;14.20;99.90
54960;DHT22;40860;51.710;8.736;2023-08-31T18:48:29;14.10;99.90
54960;DHT22;40860;51.710;8.736;2023-08-31T18:52:32;14.10;99.90
54960;DHT22;40860;51.710;8.736;2023-08-31T18:56:35;14.00;99.90
54960;DHT22;40860;51.710;8.736;2023-08-31T19:00:39;14.00;99.90
54960;DHT22;40860;51.710;8.736;2023-08-31T19:04:43;13.90;99.90
54960;DHT22;40860;51.710;8.736;2023-08-31T19:08:50;13.90;99.90
54960;DHT22;40860;51.710;8.736;2023-08-31T19:12:54;13.80;99.90
54960;DHT22;40860;51.710;8.736;2023-08-31T19:16:56;13.80;99.90
54960;DHT22;40860;51.710;8.736;2023-08-31T19:21:01;13.70;99.90
54960;DHT22;40860;51.710;8.736;2023-08-31T19:25:20;13.70;99.90
54960;DHT22;40860;51.710;8.736;2023-08-31T19:29:25;13.60;99.90
54960;DHT22;40860;51.710;8.736;2023-08-31T19:33:28;13.60;99.90
54960;DHT22;40860;51.710;8.736;2023-08-31T19:37:33;13.60;99.90
54960;DHT22;40860;51.710;8.736;2023-08-31T19:41:36;13.50;99.90
54960;DHT22;40860;51.710;8.736;2023-08-31T19:45:39;13.50;99.90
54960;DHT22;40860;51.710;8.736;2023-08-31T19:49:42;13.50;99.90
54960;DHT22;40860;51.710;8.736;2023-08-31T19:53:46;13.40;99.90
54960;DHT22;40860;51.710;8.736;2023-08-31T19:57:49;13.40;99.90
54960;DHT22;40860;51.710;8.736;2023-08-31T20:01:52;13.40;99.90
54960;DHT22;40860;51.710;8.736;2023-08-31T20:05:55;13.40;99.90
54960;DHT22;40860;51.710;8.736;2023-08-31T20:10:00;13.40;99.90
54960;DHT22;40860;51.710;8.736;2023-08-31T20:14:04;13.40;99.90
54960;DHT22;40860;51.710;8.736;2023-08-31T20:18:07;13.40;99.90
54960;DHT22;40860;51.710;8.736;2023-08-31T20:22:10;13.40;99.90
54960;DHT22;40860;51.710;8.736;2023-08-31T20:26:15;13.50;99.90
54960;DHT22;40860;51.710;8.736;2023-08-31T20:30:19;13.50;99.90
54960;DHT22;40860;51.710;8.736;2023-08-31T20:34:25;13.50;99.90
54960;DHT22;40860;51.710;8.736;2023-08-31T20:38:28;13.50;99.90
54960;DHT22;40860;51.710;8.736;2023-08-31T20:42:32;13.50;99.90
54960;DHT22;40860;51.710;8.736;2023-08-31T20:46:36;13.50;99.90
54960;DHT22;40860;51.710;8.736;2023-08-31T20:50:39;13.50;99.90
54960;DHT22;40860;51.710;8.736;2023-08-31T20:54:42;13.50;99.90
54960;DHT22;40860;51.710;8.736;2023-08-31T20:58:46;13.50;99.90
54960;DHT22;40860;51.710;8.736;2023-08-31T21:02:49;13.50;99.90
54960;DHT22;40860;51.710;8.736;2023-08-31T21:06:52;13.50;99.90
54960;DHT22;40860;51.710;8.736;2023-08-31T21:10:55;13.50;99.90
54960;DHT22;40860;51.710;8.736;2023-08-31T21:14:59;13.50;99.90
54960;DHT22;40860;51.710;8.736;2023-08-31T21:19:03;13.60;99.90
54960;DHT22;40860;51.710;8.736;2023-08-31T21:23:06;13.60;99.90
54960;DHT22;40860;51.710;8.736;2023-08-31T21:27:14;13.60;99.90
54960;DHT22;40860;51.710;8.736;2023-08-31T21:31:18;13.60;99.90
54960;DHT22;40860;51.710;8.736;2023-08-31T21:35:21;13.60;99.90
54960;DHT22;40860;51.710;8.736;2023-08-31T21:39:26;13.60;99.90
54960;DHT22;40860;51.710;8.736;2023-08-31T21:43:29;13.60;99.90
54960;DHT22;40860;51.710;8.736;2023-08-31T21:47:33;13.70;99.90
54960;DHT22;40860;51.710;8.736;2023-08-31T21:51:37;13.70;99.90
54960;DHT22;40860;51.710;8.736;2023-08-31T21:55:41;13.70;99.90
54960;DHT22;40860;51.710;8.736;2023-08-31T21:59:44;13.70;99.90
54960;DHT22;40860;51.710;8.736;2023-08-31T22:03:48;13.70;99.90
54960;DHT22;40860;51.710;8.736;2023-08-31T22:07:51;13.70;99.90
54960;DHT22;40860;51.710;8.736;2023-08-31T22:11:55;13.60;99.90
54960;DHT22;40860;51.710;8.736;2023-08-31T22:16:00;13.70;99.90
54960;DHT22;40860;51.710;8.736;2023-08-31T22:20:18;13.70;99.90
54960;DHT22;40860;51.710;8.736;2023-08-31T22:24:21;13.60;99.90
54960;DHT22;40860;51.710;8.736;2023-08-31T22:28:27;13.60;99.90
54960;DHT22;40860;51.710;8.736;2023-08-31T22:32:30;13.60;99.90
54960;DHT22;40860;51.710;8.736;2023-08-31T22:36:34;13.50;99.90
54960;DHT22;40860;51.710;8.736;2023-08-31T22:40:37;13.60;99.90
54960;DHT22;40860;51.710;8.736;2023-08-31T22:44:40;13.50;99.90
54960;DHT22;40860;51.710;8.736;2023-08-31T22:48:43;13.50;99.90
54960;DHT22;40860;51.710;8.736;2023-08-31T22:52:47;13.50;99.90
54960;DHT22;40860;51.710;8.736;2023-08-31T22:56:50;13.50;99.90
54960;DHT22;40860;51.710;8.736;2023-08-31T23:00:53;13.50;99.90
54960;DHT22;40860;51.710;8.736;2023-08-31T23:04:56;13.50;99.90
54960;DHT22;40860;51.710;8.736;2023-08-31T23:09:00;13.50;99.90
54960;DHT22;40860;51.710;8.736;2023-08-31T23:13:05;13.50;99.90
54960;DHT22;40860;51.710;8.736;2023-08-31T23:17:08;13.50;99.90
54960;DHT22;40860;51.710;8.736;2023-08-31T23:21:11;13.50;99.90
54960;DHT22;40860;51.710;8.736;2023-08-31T23:25:19;13.50;99.90
54960;DHT22;40860;51.710;8.736;2023-08-31T23:29:22;13.50;99.90
54960;DHT22;40860;51.710;8.736;2023-08-31T23:33:25;13.50;99.90
54960;DHT22;40860;51.710;8.736;2023-08-31T23:37:28;13.50;99.90
54960;DHT22;40860;51.710;8.736;2023-08-31T23:41:33;13.50;99.90
54960;DHT22;40860;51.710;8.736;2023-08-31T23:45:35;13.50;99.90
54960;DHT22;40860;51.710;8.736;2023-08-31T23:49:38;13.50;99.90
54960;DHT22;40860;51.710;8.736;2023-08-31T23:53:42;13.50;99.90
54960;DHT22;40860;51.710;8.736;2023-08-31T23:57:46;13.50;99.90
